sensor_id;sensor_type;location;lat;lon;timestamp;temperature;humidity
40123;DHT22;25832;45.490;4.912;2023-06-04T00:01:13;15.60;99.90
40123;DHT22;25832;45.490;4.912;2023-06-04T00:03:38;15.60;99.90
40123;DHT22;25832;45.490;4.912;2023-06-04T00:06:04;15.50;99.90
40123;DHT22;25832;45.490;4.912;2023-06-04T00:08:30;15.50;99.90
40123;DHT22;25832;45.490;4.912;2023-06-04T00:10:55;15.50;99.90
40123;DHT22;25832;45.490;4.912;2023-06-04T00:13:21;15.50;99.90
40123;DHT22;25832;45.490;4.912;2023-06-04T00:15:47;15.50;99.90
40123;DHT22;25832;45.490;4.912;2023-06-04T00:18:12;15.50;99.90
40123;DHT22;25832;45.490;4.912;2023-06-04T00:20:39;15.60;99.90
40123;DHT22;25832;45.490;4.912;2023-06-04T00:23:04;15.60;99.90
40123;DHT22;25832;45.490;4.912;2023-06-04T00:25:31;15.70;99.90
40123;DHT22;25832;45.490;4.912;2023-06-04T00:27:56;15.70;99.90
40123;DHT22;25832;45.490;4.912;2023-06-04T00:30:22;15.70;99.90
40123;DHT22;25832;45.490;4.912;2023-06-04T00:32:48;15.70;99.90
40123;DHT22;25832;45.490;4.912;2023-06-04T00:35:13;15.60;99.90
40123;DHT22;25832;45.490;4.912;2023-06-04T00:37:39;15.60;99.90
40123;DHT22;25832;45.490;4.912;2023-06-04T00:40:05;15.60;99.90
40123;DHT22;25832;45.490;4.912;2023-06-04T00:42:31;15.60;99.90
40123;DHT22;25832;45.490;4.912;2023-06-04T00:44:58;15.60;99.90
40123;DHT22;25832;45.490;4.912;2023-06-04T00:47:24;15.60;99.90
40123;DHT22;25832;45.490;4.912;2023-06-04T00:49:53;15.70;99.90
40123;DHT22;25832;45.490;4.912;2023-06-04T00:52:18;15.70;99.90
40123;DHT22;25832;45.490;4.912;2023-06-04T00:54:44;15.80;99.90
40123;DHT22;25832;45.490;4.912;2023-06-04T00:57:10;15.80;99.90
40123;DHT22;25832;45.490;4.912;2023-06-04T00:59:38;15.90;99.90
40123;DHT22;25832;45.490;4.912;2023-06-04T01:02:13;15.90;99.90
40123;DHT22;25832;45.490;4.912;2023-06-04T01:05:02;15.90;99.90
40123;DHT22;25832;45.490;4.912;2023-06-04T01:07:35;15.90;99.90
40123;DHT22;25832;45.490;4.912;2023-06-04T01:10:02;16.00;99.90
40123;DHT22;25832;45.490;4.912;2023-06-04T01:12:28;16.00;99.90
40123;DHT22;25832;45.490;4.912;2023-06-04T01:14:53;16.00;99.90
40123;DHT22;25832;45.490;4.912;2023-06-04T01:17:31;15.90;99.90
40123;DHT22;25832;45.490;4.912;2023-06-04T01:22:42;15.90;99.90
40123;DHT22;25832;45.490;4.912;2023-06-04T01:25:21;15.90;99.90
40123;DHT22;25832;45.490;4.912;2023-06-04T01:27:50;15.90;99.90
40123;DHT22;25832;45.490;4.912;2023-06-04T01:30:26;15.90;99.90
40123;DHT22;25832;45.490;4.912;2023-06-04T01:32:54;15.90;99.90
40123;DHT22;25832;45.490;4.912;2023-06-04T01:35:20;16.00;99.90
40123;DHT22;25832;45.490;4.912;2023-06-04T01:37:46;16.00;99.90
40123;DHT22;25832;45.490;4.912;2023-06-04T01:40:13;16.00;99.90
40123;DHT22;25832;45.490;4.912;2023-06-04T01:42:40;16.00;99.90
40123;DHT22;25832;45.490;4.912;2023-06-04T01:45:06;15.90;99.90
40123;DHT22;25832;45.490;4.912;2023-06-04T01:47:31;15.90;99.90
40123;DHT22;25832;45.490;4.912;2023-06-04T01:49:57;15.80;99.90
40123;DHT22;25832;45.490;4.912;2023-06-04T01:52:23;15.80;99.90
40123;DHT22;25832;45.490;4.912;2023-06-04T01:54:49;15.80;99.90
40123;DHT22;25832;45.490;4.912;2023-06-04T01:57:20;15.80;99.90
40123;DHT22;25832;45.490;4.912;2023-06-04T01:59:46;15.80;99.90
40123;DHT22;25832;45.490;4.912;2023-06-04T02:02:13;15.70;99.90
40123;DHT22;25832;45.490;4.912;2023-06-04T02:04:39;15.70;99.90
40123;DHT22;25832;45.490;4.912;2023-06-04T02:07:10;15.70;99.90
40123;DHT22;25832;45.490;4.912;2023-06-04T02:09:39;15.80;99.90
40123;DHT22;25832;45.490;4.912;2023-06-04T02:12:06;15.80;99.90
40123;DHT22;25832;45.490;4.912;2023-06-04T02:14:31;15.80;99.90
40123;DHT22;25832;45.490;4.912;2023-06-04T02:16:57;15.80;99.90
40123;DHT22;25832;45.490;4.912;2023-06-04T02:19:26;15.80;99.90
40123;DHT22;25832;45.490;4.912;2023-06-04T02:21:55;15.80;99.90
40123;DHT22;25832;45.490;4.912;2023-06-04T02:24:21;15.80;99.90
40123;DHT22;25832;45.490;4.912;2023-06-04T02:26:47;15.90;99.90
40123;DHT22;25832;45.490;4.912;2023-06-04T02:29:12;15.80;99.90
40123;DHT22;25832;45.490;4.912;2023-06-04T02:31:38;15.80;99.90
40123;DHT22;25832;45.490;4.912;2023-06-04T02:34:04;15.70;99.90
40123;DHT22;25832;45.490;4.912;2023-06-04T02:36:29;15.70;99.90
40123;DHT22;25832;45.490;4.912;2023-06-04T02:38:55;15.70;99.90
40123;DHT22;25832;45.490;4.912;2023-06-04T02:41:22;15.70;99.90
40123;DHT22;25832;45.490;4.912;2023-06-04T02:43:48;15.60;99.90
40123;DHT22;25832;45.490;4.912;2023-06-04T02:46:14;15.60;99.90
40123;DHT22;25832;45.490;4.912;2023-06-04T02:48:39;15.50;99.90
40123;DHT22;25832;45.490;4.912;2023-06-04T02:51:05;15.50;99.90
40123;DHT22;25832;45.490;4.912;2023-06-04T02:53:31;15.50;99.90
40123;DHT22;25832;45.490;4.912;2023-06-04T02:55:56;15.60;99.90
40123;DHT22;25832;45.490;4.912;2023-06-04T02:58:24;15.60;99.90
40123;DHT22;25832;45.490;4.912;2023-06-04T03:00:55;15.60;99.90
40123;DHT22;25832;45.490;4.912;2023-06-04T03:03:21;15.60;99.90
40123;DHT22;25832;45.490;4.912;2023-06-04T03:05:47;15.60;99.90
40123;DHT22;25832;45.490;4.912;2023-06-04T03:08:13;15.70;99.90
40123;DHT22;25832;45.490;4.912;2023-06-04T03:10:39;15.60;99.90
40123;DHT22;25832;45.490;4.912;2023-06-04T03:13:04;15.60;99.90
40123;DHT22;25832;45.490;4.912;2023-06-04T03:15:30;15.60;99.90
40123;DHT22;25832;45.490;4.912;2023-06-04T03:17:56;15.60;99.90
40123;DHT22;25832;45.490;4.912;2023-06-04T03:20:23;15.50;99.90
40123;DHT22;25832;45.490;4.912;2023-06-04T03:22:50;15.50;99.90
40123;DHT22;25832;45.490;4.912;2023-06-04T03:25:16;15.40;99.90
40123;DHT22;25832;45.490;4.912;2023-06-04T03:27:42;15.40;99.90
40123;DHT22;25832;45.490;4.912;2023-06-04T03:30:08;15.40;99.90
40123;DHT22;25832;45.490;4.912;2023-06-04T03:32:34;15.50;99.90
40123;DHT22;25832;45.490;4.912;2023-06-04T03:35:00;15.50;99.90
40123;DHT22;25832;45.490;4.912;2023-06-04T03:37:26;15.50;99.90
40123;DHT22;25832;45.490;4.912;2023-06-04T03:39:52;15.50;99.90
40123;DHT22;25832;45.490;4.912;2023-06-04T03:42:17;15.60;99.90
40123;DHT22;25832;45.490;4.912;2023-06-04T03:44:44;15.60;99.90
40123;DHT22;25832;45.490;4.912;2023-06-04T03:47:09;15.60;99.90
40123;DHT22;25832;45.490;4.912;2023-06-04T03:49:35;15.60;99.90
40123;DHT22;25832;45.490;4.912;2023-06-04T03:52:01;15.60;99.90
40123;DHT22;25832;45.490;4.912;2023-06-04T03:54:26;15.60;99.90
40123;DHT22;25832;45.490;4.912;2023-06-04T03:56:52;15.50;99.90
40123;DHT22;25832;45.490;4.912;2023-06-04T03:59:17;15.50;99.90
40123;DHT22;25832;45.490;4.912;2023-06-04T04:01:43;15.50;99.90
40123;DHT22;25832;45.490;4.912;2023-06-04T04:04:09;15.50;99.90
40123;DHT22;25832;45.490;4.912;2023-06-04T04:06:35;15.50;99.90
40123;DHT22;25832;45.490;4.912;2023-06-04T04:09:01;15.60;99.90
40123;DHT22;25832;45.490;4.912;2023-06-04T04:11:27;15.60;99.90
40123;DHT22;25832;45.490;4.912;2023-06-04T04:13:53;15.60;99.90
40123;DHT22;25832;45.490;4.912;2023-06-04T04:16:19;15.70;99.90
40123;DHT22;25832;45.490;4.912;2023-06-04T04:18:44;15.70;99.90
40123;DHT22;25832;45.490;4.912;2023-06-04T04:21:10;15.70;99.90
40123;DHT22;25832;45.490;4.912;2023-06-04T04:23:38;15.80;99.90
40123;DHT22;25832;45.490;4.912;2023-06-04T04:26:05;15.80;99.90
40123;DHT22;25832;45.490;4.912;2023-06-04T04:28:31;15.80;99.90
40123;DHT22;25832;45.490;4.912;2023-06-04T04:30:58;15.80;99.90
40123;DHT22;25832;45.490;4.912;2023-06-04T04:33:25;15.80;99.90
40123;DHT22;25832;45.490;4.912;2023-06-04T04:35:51;15.80;99.90
40123;DHT22;25832;45.490;4.912;2023-06-04T04:38:19;15.90;99.90
40123;DHT22;25832;45.490;4.912;2023-06-04T04:40:45;15.80;99.90
40123;DHT22;25832;45.490;4.912;2023-06-04T04:43:13;15.80;99.90
40123;DHT22;25832;45.490;4.912;2023-06-04T04:45:39;15.90;99.90
40123;DHT22;25832;45.490;4.912;2023-06-04T04:48:04;15.90;99.90
40123;DHT22;25832;45.490;4.912;2023-06-04T04:50:30;15.90;99.90
40123;DHT22;25832;45.490;4.912;2023-06-04T04:52:58;16.00;99.90
40123;DHT22;25832;45.490;4.912;2023-06-04T04:55:23;16.00;99.90
40123;DHT22;25832;45.490;4.912;2023-06-04T04:57:49;16.00;99.90
40123;DHT22;25832;45.490;4.912;2023-06-04T05:00:15;16.00;99.90
40123;DHT22;25832;45.490;4.912;2023-06-04T05:02:41;16.00;99.90
40123;DHT22;25832;45.490;4.912;2023-06-04T05:05:07;16.10;99.90
40123;DHT22;25832;45.490;4.912;2023-06-04T05:07:33;16.10;99.90
40123;DHT22;25832;45.490;4.912;2023-06-04T05:09:58;16.10;99.90
40123;DHT22;25832;45.490;4.912;2023-06-04T05:12:29;16.10;99.90
40123;DHT22;25832;45.490;4.912;2023-06-04T05:14:55;16.10;99.90
40123;DHT22;25832;45.490;4.912;2023-06-04T05:17:20;16.10;99.90
40123;DHT22;25832;45.490;4.912;2023-06-04T05:19:58;16.10;99.90
40123;DHT22;25832;45.490;4.912;2023-06-04T05:22:30;16.10;99.90
40123;DHT22;25832;45.490;4.912;2023-06-04T05:24:57;16.00;99.90
40123;DHT22;25832;45.490;4.912;2023-06-04T05:27:25;15.90;99.90
40123;DHT22;25832;45.490;4.912;2023-06-04T05:29:51;15.90;99.90
40123;DHT22;25832;45.490;4.912;2023-06-04T05:32:16;15.90;99.90
40123;DHT22;25832;45.490;4.912;2023-06-04T05:34:43;15.90;99.90
40123;DHT22;25832;45.490;4.912;2023-06-04T05:37:09;15.90;99.90
40123;DHT22;25832;45.490;4.912;2023-06-04T05:39:34;16.10;99.90
40123;DHT22;25832;45.490;4.912;2023-06-04T05:42:01;16.10;99.90
40123;DHT22;25832;45.490;4.912;2023-06-04T05:44:27;16.00;99.90
40123;DHT22;25832;45.490;4.912;2023-06-04T05:46:52;16.00;99.90
40123;DHT22;25832;45.490;4.912;2023-06-04T05:49:18;16.10;99.90
40123;DHT22;25832;45.490;4.912;2023-06-04T05:51:45;16.10;99.90
40123;DHT22;25832;45.490;4.912;2023-06-04T05:54:10;16.10;99.90
40123;DHT22;25832;45.490;4.912;2023-06-04T05:56:36;16.20;99.90
40123;DHT22;25832;45.490;4.912;2023-06-04T05:59:02;16.20;99.90
40123;DHT22;25832;45.490;4.912;2023-06-04T06:01:27;16.30;99.90
40123;DHT22;25832;45.490;4.912;2023-06-04T06:03:54;16.40;99.90
40123;DHT22;25832;45.490;4.912;2023-06-04T06:06:20;16.50;99.90
40123;DHT22;25832;45.490;4.912;2023-06-04T06:08:46;16.50;99.90
40123;DHT22;25832;45.490;4.912;2023-06-04T06:11:12;16.60;99.90
40123;DHT22;25832;45.490;4.912;2023-06-04T06:13:38;16.70;99.90
40123;DHT22;25832;45.490;4.912;2023-06-04T06:16:03;16.70;99.90
40123;DHT22;25832;45.490;4.912;2023-06-04T06:18:30;16.70;99.90
40123;DHT22;25832;45.490;4.912;2023-06-04T06:20:56;16.70;99.90
40123;DHT22;25832;45.490;4.912;2023-06-04T06:23:21;16.70;99.90
40123;DHT22;25832;45.490;4.912;2023-06-04T06:25:49;16.70;99.90
40123;DHT22;25832;45.490;4.912;2023-06-04T06:28:17;16.80;99.90
40123;DHT22;25832;45.490;4.912;2023-06-04T06:30:43;16.80;99.90
40123;DHT22;25832;45.490;4.912;2023-06-04T06:33:10;16.80;99.90
40123;DHT22;25832;45.490;4.912;2023-06-04T06:35:36;16.90;99.90
40123;DHT22;25832;45.490;4.912;2023-06-04T06:38:01;17.00;99.90
40123;DHT22;25832;45.490;4.912;2023-06-04T06:40:27;17.00;99.90
40123;DHT22;25832;45.490;4.912;2023-06-04T06:42:55;17.00;99.90
40123;DHT22;25832;45.490;4.912;2023-06-04T06:45:21;17.10;99.90
40123;DHT22;25832;45.490;4.912;2023-06-04T06:47:47;17.10;99.90
40123;DHT22;25832;45.490;4.912;2023-06-04T06:50:13;17.20;99.90
40123;DHT22;25832;45.490;4.912;2023-06-04T06:52:39;17.20;99.90
40123;DHT22;25832;45.490;4.912;2023-06-04T06:55:05;17.20;99.90
40123;DHT22;25832;45.490;4.912;2023-06-04T06:57:30;17.30;99.90
40123;DHT22;25832;45.490;4.912;2023-06-04T06:59:56;17.20;99.90
40123;DHT22;25832;45.490;4.912;2023-06-04T07:02:23;17.30;99.90
40123;DHT22;25832;45.490;4.912;2023-06-04T07:04:49;17.30;99.90
40123;DHT22;25832;45.490;4.912;2023-06-04T07:07:14;17.30;99.90
40123;DHT22;25832;45.490;4.912;2023-06-04T07:09:40;17.40;99.90
40123;DHT22;25832;45.490;4.912;2023-06-04T07:12:06;17.50;99.90
40123;DHT22;25832;45.490;4.912;2023-06-04T07:14:32;17.60;99.90
40123;DHT22;25832;45.490;4.912;2023-06-04T07:16:57;17.70;99.90
40123;DHT22;25832;45.490;4.912;2023-06-04T07:19:23;17.60;99.90
40123;DHT22;25832;45.490;4.912;2023-06-04T07:21:50;17.60;99.90
40123;DHT22;25832;45.490;4.912;2023-06-04T07:24:16;17.60;99.90
40123;DHT22;25832;45.490;4.912;2023-06-04T07:26:41;17.60;99.90
40123;DHT22;25832;45.490;4.912;2023-06-04T07:29:07;17.50;99.90
40123;DHT22;25832;45.490;4.912;2023-06-04T07:31:33;17.60;99.90
40123;DHT22;25832;45.490;4.912;2023-06-04T07:33:58;17.70;99.90
40123;DHT22;25832;45.490;4.912;2023-06-04T07:36:24;17.80;99.90
40123;DHT22;25832;45.490;4.912;2023-06-04T07:38:50;17.90;99.90
40123;DHT22;25832;45.490;4.912;2023-06-04T07:41:15;18.10;99.90
40123;DHT22;25832;45.490;4.912;2023-06-04T07:43:42;18.30;99.90
40123;DHT22;25832;45.490;4.912;2023-06-04T07:46:08;18.40;99.90
40123;DHT22;25832;45.490;4.912;2023-06-04T07:48:35;18.50;99.90
40123;DHT22;25832;45.490;4.912;2023-06-04T07:51:02;18.60;99.90
40123;DHT22;25832;45.490;4.912;2023-06-04T07:53:30;18.80;99.90
40123;DHT22;25832;45.490;4.912;2023-06-04T07:55:56;18.70;99.90
40123;DHT22;25832;45.490;4.912;2023-06-04T07:58:22;18.70;99.90
40123;DHT22;25832;45.490;4.912;2023-06-04T08:00:48;18.70;99.90
40123;DHT22;25832;45.490;4.912;2023-06-04T08:03:13;18.70;99.90
40123;DHT22;25832;45.490;4.912;2023-06-04T08:05:41;18.70;99.90
40123;DHT22;25832;45.490;4.912;2023-06-04T08:08:07;18.80;99.90
40123;DHT22;25832;45.490;4.912;2023-06-04T08:10:33;18.90;99.90
40123;DHT22;25832;45.490;4.912;2023-06-04T08:12:59;19.10;99.90
40123;DHT22;25832;45.490;4.912;2023-06-04T08:15:25;19.20;99.90
40123;DHT22;25832;45.490;4.912;2023-06-04T08:17:50;19.40;99.90
40123;DHT22;25832;45.490;4.912;2023-06-04T08:20:16;19.50;99.90
40123;DHT22;25832;45.490;4.912;2023-06-04T08:22:42;19.60;99.90
40123;DHT22;25832;45.490;4.912;2023-06-04T08:25:07;19.80;99.90
40123;DHT22;25832;45.490;4.912;2023-06-04T08:27:34;20.00;99.90
40123;DHT22;25832;45.490;4.912;2023-06-04T08:30:00;20.10;99.90
40123;DHT22;25832;45.490;4.912;2023-06-04T08:32:26;20.30;99.90
40123;DHT22;25832;45.490;4.912;2023-06-04T08:34:51;20.30;99.90
40123;DHT22;25832;45.490;4.912;2023-06-04T08:37:17;20.40;99.90
40123;DHT22;25832;45.490;4.912;2023-06-04T08:39:43;20.50;99.90
40123;DHT22;25832;45.490;4.912;2023-06-04T08:42:15;20.60;99.90
40123;DHT22;25832;45.490;4.912;2023-06-04T08:44:47;20.80;99.90
40123;DHT22;25832;45.490;4.912;2023-06-04T08:47:17;20.90;99.90
40123;DHT22;25832;45.490;4.912;2023-06-04T08:49:44;21.10;99.90
40123;DHT22;25832;45.490;4.912;2023-06-04T08:52:12;21.20;99.90
40123;DHT22;25832;45.490;4.912;2023-06-04T08:54:38;21.30;99.90
40123;DHT22;25832;45.490;4.912;2023-06-04T08:57:04;21.40;99.90
40123;DHT22;25832;45.490;4.912;2023-06-04T08:59:31;21.60;99.90
40123;DHT22;25832;45.490;4.912;2023-06-04T09:01:57;21.90;99.90
40123;DHT22;25832;45.490;4.912;2023-06-04T09:04:23;22.10;99.90
40123;DHT22;25832;45.490;4.912;2023-06-04T09:06:49;22.40;99.90
40123;DHT22;25832;45.490;4.912;2023-06-04T09:09:15;22.50;99.90
40123;DHT22;25832;45.490;4.912;2023-06-04T09:11:52;22.60;99.90
40123;DHT22;25832;45.490;4.912;2023-06-04T09:14:18;22.50;99.90
40123;DHT22;25832;45.490;4.912;2023-06-04T09:16:45;22.40;99.90
40123;DHT22;25832;45.490;4.912;2023-06-04T09:19:11;22.30;99.90
40123;DHT22;25832;45.490;4.912;2023-06-04T09:22:05;22.50;99.90
40123;DHT22;25832;45.490;4.912;2023-06-04T09:24:42;22.70;99.90
40123;DHT22;25832;45.490;4.912;2023-06-04T09:27:13;23.10;99.90
40123;DHT22;25832;45.490;4.912;2023-06-04T09:29:40;23.50;99.90
40123;DHT22;25832;45.490;4.912;2023-06-04T09:32:06;23.90;99.90
40123;DHT22;25832;45.490;4.912;2023-06-04T09:34:31;24.20;99.90
40123;DHT22;25832;45.490;4.912;2023-06-04T09:36:58;24.60;99.90
40123;DHT22;25832;45.490;4.912;2023-06-04T09:39:24;24.80;99.90
40123;DHT22;25832;45.490;4.912;2023-06-04T09:42:00;25.00;98.80
40123;DHT22;25832;45.490;4.912;2023-06-04T09:44:26;24.90;98.30
40123;DHT22;25832;45.490;4.912;2023-06-04T09:46:55;24.80;98.30
40123;DHT22;25832;45.490;4.912;2023-06-04T09:49:21;24.50;96.10
40123;DHT22;25832;45.490;4.912;2023-06-04T09:51:48;24.20;99.10
40123;DHT22;25832;45.490;4.912;2023-06-04T09:54:14;24.00;98.80
40123;DHT22;25832;45.490;4.912;2023-06-04T09:56:41;23.90;99.90
40123;DHT22;25832;45.490;4.912;2023-06-04T09:59:08;23.80;99.90
40123;DHT22;25832;45.490;4.912;2023-06-04T10:01:39;23.70;99.00
40123;DHT22;25832;45.490;4.912;2023-06-04T10:04:08;23.70;99.50
40123;DHT22;25832;45.490;4.912;2023-06-04T10:06:35;23.90;99.90
40123;DHT22;25832;45.490;4.912;2023-06-04T10:09:12;24.00;99.80
40123;DHT22;25832;45.490;4.912;2023-06-04T10:11:48;24.20;99.90
40123;DHT22;25832;45.490;4.912;2023-06-04T10:14:22;24.30;99.90
40123;DHT22;25832;45.490;4.912;2023-06-04T10:16:50;24.40;99.90
40123;DHT22;25832;45.490;4.912;2023-06-04T10:19:16;24.40;99.70
40123;DHT22;25832;45.490;4.912;2023-06-04T10:21:43;24.50;97.60
40123;DHT22;25832;45.490;4.912;2023-06-04T10:24:09;24.60;97.70
40123;DHT22;25832;45.490;4.912;2023-06-04T10:26:37;24.50;97.30
40123;DHT22;25832;45.490;4.912;2023-06-04T10:29:03;24.40;96.50
40123;DHT22;25832;45.490;4.912;2023-06-04T10:31:32;24.30;98.10
40123;DHT22;25832;45.490;4.912;2023-06-04T10:33:58;24.30;99.20
40123;DHT22;25832;45.490;4.912;2023-06-04T10:36:24;24.30;99.90
40123;DHT22;25832;45.490;4.912;2023-06-04T10:38:52;24.30;99.10
40123;DHT22;25832;45.490;4.912;2023-06-04T10:41:19;24.10;99.30
40123;DHT22;25832;45.490;4.912;2023-06-04T10:43:47;24.00;99.90
40123;DHT22;25832;45.490;4.912;2023-06-04T10:46:19;24.00;97.80
40123;DHT22;25832;45.490;4.912;2023-06-04T10:48:49;24.20;97.60
40123;DHT22;25832;45.490;4.912;2023-06-04T10:51:15;24.10;96.70
40123;DHT22;25832;45.490;4.912;2023-06-04T10:53:41;23.90;96.60
40123;DHT22;25832;45.490;4.912;2023-06-04T10:56:07;24.00;96.50
40123;DHT22;25832;45.490;4.912;2023-06-04T10:58:33;24.20;97.10
40123;DHT22;25832;45.490;4.912;2023-06-04T11:00:59;24.30;96.80
40123;DHT22;25832;45.490;4.912;2023-06-04T11:03:35;24.40;97.90
40123;DHT22;25832;45.490;4.912;2023-06-04T11:06:01;24.60;99.20
40123;DHT22;25832;45.490;4.912;2023-06-04T11:08:29;24.90;98.50
40123;DHT22;25832;45.490;4.912;2023-06-04T11:10:55;25.00;96.70
40123;DHT22;25832;45.490;4.912;2023-06-04T11:13:24;25.00;96.20
40123;DHT22;25832;45.490;4.912;2023-06-04T11:15:51;24.90;95.60
40123;DHT22;25832;45.490;4.912;2023-06-04T11:18:19;24.90;96.40
40123;DHT22;25832;45.490;4.912;2023-06-04T11:20:49;25.00;96.00
40123;DHT22;25832;45.490;4.912;2023-06-04T11:23:16;24.90;95.70
40123;DHT22;25832;45.490;4.912;2023-06-04T11:25:42;25.00;95.70
40123;DHT22;25832;45.490;4.912;2023-06-04T11:28:15;25.20;94.30
40123;DHT22;25832;45.490;4.912;2023-06-04T11:30:42;25.30;94.00
40123;DHT22;25832;45.490;4.912;2023-06-04T11:33:08;25.30;95.20
40123;DHT22;25832;45.490;4.912;2023-06-04T11:35:41;25.50;94.00
40123;DHT22;25832;45.490;4.912;2023-06-04T11:38:07;25.70;94.70
40123;DHT22;25832;45.490;4.912;2023-06-04T11:40:33;25.80;92.80
40123;DHT22;25832;45.490;4.912;2023-06-04T11:42:58;25.60;92.70
40123;DHT22;25832;45.490;4.912;2023-06-04T11:45:24;25.50;92.70
40123;DHT22;25832;45.490;4.912;2023-06-04T11:47:55;25.70;91.50
40123;DHT22;25832;45.490;4.912;2023-06-04T11:50:21;25.70;91.90
40123;DHT22;25832;45.490;4.912;2023-06-04T11:52:52;25.70;92.30
40123;DHT22;25832;45.490;4.912;2023-06-04T11:55:18;25.70;93.00
40123;DHT22;25832;45.490;4.912;2023-06-04T11:57:46;25.50;93.40
40123;DHT22;25832;45.490;4.912;2023-06-04T12:00:12;25.50;93.70
40123;DHT22;25832;45.490;4.912;2023-06-04T12:05:16;25.70;94.10
40123;DHT22;25832;45.490;4.912;2023-06-04T12:07:44;25.90;92.70
40123;DHT22;25832;45.490;4.912;2023-06-04T12:10:10;26.10;92.80
40123;DHT22;25832;45.490;4.912;2023-06-04T12:12:37;26.20;91.90
40123;DHT22;25832;45.490;4.912;2023-06-04T12:15:03;26.30;91.20
40123;DHT22;25832;45.490;4.912;2023-06-04T12:17:31;26.30;92.00
40123;DHT22;25832;45.490;4.912;2023-06-04T12:19:57;26.40;92.00
40123;DHT22;25832;45.490;4.912;2023-06-04T12:22:24;26.60;92.10
40123;DHT22;25832;45.490;4.912;2023-06-04T12:24:53;26.80;91.40
40123;DHT22;25832;45.490;4.912;2023-06-04T12:27:20;27.00;92.20
40123;DHT22;25832;45.490;4.912;2023-06-04T12:30:01;27.00;92.30
40123;DHT22;25832;45.490;4.912;2023-06-04T12:32:27;27.00;91.90
40123;DHT22;25832;45.490;4.912;2023-06-04T12:34:54;26.90;91.10
40123;DHT22;25832;45.490;4.912;2023-06-04T12:37:21;26.80;90.00
40123;DHT22;25832;45.490;4.912;2023-06-04T12:39:47;26.90;91.90
40123;DHT22;25832;45.490;4.912;2023-06-04T12:42:13;27.00;92.40
40123;DHT22;25832;45.490;4.912;2023-06-04T12:44:39;27.20;90.70
40123;DHT22;25832;45.490;4.912;2023-06-04T12:47:06;27.20;90.70
40123;DHT22;25832;45.490;4.912;2023-06-04T12:49:32;26.80;89.20
40123;DHT22;25832;45.490;4.912;2023-06-04T12:51:57;26.60;90.00
40123;DHT22;25832;45.490;4.912;2023-06-04T12:54:24;26.40;90.40
40123;DHT22;25832;45.490;4.912;2023-06-04T12:56:49;26.10;91.10
40123;DHT22;25832;45.490;4.912;2023-06-04T12:59:16;26.00;92.10
40123;DHT22;25832;45.490;4.912;2023-06-04T13:01:42;26.10;91.30
40123;DHT22;25832;45.490;4.912;2023-06-04T13:04:07;26.20;91.50
40123;DHT22;25832;45.490;4.912;2023-06-04T13:06:34;26.40;89.90
40123;DHT22;25832;45.490;4.912;2023-06-04T13:09:01;26.70;90.30
40123;DHT22;25832;45.490;4.912;2023-06-04T13:11:27;27.00;91.00
40123;DHT22;25832;45.490;4.912;2023-06-04T13:13:53;27.00;89.30
40123;DHT22;25832;45.490;4.912;2023-06-04T13:16:18;27.00;87.90
40123;DHT22;25832;45.490;4.912;2023-06-04T13:18:44;27.00;87.80
40123;DHT22;25832;45.490;4.912;2023-06-04T13:21:09;27.10;90.20
40123;DHT22;25832;45.490;4.912;2023-06-04T13:23:35;27.20;89.00
40123;DHT22;25832;45.490;4.912;2023-06-04T13:26:01;27.30;89.90
40123;DHT22;25832;45.490;4.912;2023-06-04T13:28:27;27.20;89.10
40123;DHT22;25832;45.490;4.912;2023-06-04T13:30:52;27.20;89.40
40123;DHT22;25832;45.490;4.912;2023-06-04T13:33:18;27.20;88.50
40123;DHT22;25832;45.490;4.912;2023-06-04T13:35:45;27.20;90.00
40123;DHT22;25832;45.490;4.912;2023-06-04T13:38:11;27.30;89.90
40123;DHT22;25832;45.490;4.912;2023-06-04T13:40:38;27.50;90.30
40123;DHT22;25832;45.490;4.912;2023-06-04T13:43:05;27.70;90.00
40123;DHT22;25832;45.490;4.912;2023-06-04T13:45:32;27.70;89.00
40123;DHT22;25832;45.490;4.912;2023-06-04T13:47:58;27.70;90.90
40123;DHT22;25832;45.490;4.912;2023-06-04T13:50:31;27.40;86.80
40123;DHT22;25832;45.490;4.912;2023-06-04T13:52:57;27.30;91.20
40123;DHT22;25832;45.490;4.912;2023-06-04T13:55:22;27.30;89.00
40123;DHT22;25832;45.490;4.912;2023-06-04T13:57:48;27.40;90.00
40123;DHT22;25832;45.490;4.912;2023-06-04T14:00:14;27.40;88.70
40123;DHT22;25832;45.490;4.912;2023-06-04T14:02:40;27.50;88.10
40123;DHT22;25832;45.490;4.912;2023-06-04T14:05:06;27.50;87.30
40123;DHT22;25832;45.490;4.912;2023-06-04T14:07:32;27.60;85.40
40123;DHT22;25832;45.490;4.912;2023-06-04T14:09:58;27.50;83.60
40123;DHT22;25832;45.490;4.912;2023-06-04T14:12:24;27.40;86.00
40123;DHT22;25832;45.490;4.912;2023-06-04T14:14:50;27.40;89.00
40123;DHT22;25832;45.490;4.912;2023-06-04T14:17:16;27.40;88.20
40123;DHT22;25832;45.490;4.912;2023-06-04T14:19:42;27.50;88.30
40123;DHT22;25832;45.490;4.912;2023-06-04T14:22:09;27.60;88.90
40123;DHT22;25832;45.490;4.912;2023-06-04T14:24:35;27.70;86.00
40123;DHT22;25832;45.490;4.912;2023-06-04T14:27:00;27.80;86.70
40123;DHT22;25832;45.490;4.912;2023-06-04T14:29:26;27.90;85.60
40123;DHT22;25832;45.490;4.912;2023-06-04T14:31:52;27.80;87.00
40123;DHT22;25832;45.490;4.912;2023-06-04T14:34:17;27.70;85.80
40123;DHT22;25832;45.490;4.912;2023-06-04T14:36:43;27.70;86.20
40123;DHT22;25832;45.490;4.912;2023-06-04T14:39:08;27.60;81.50
40123;DHT22;25832;45.490;4.912;2023-06-04T14:41:34;27.60;84.80
40123;DHT22;25832;45.490;4.912;2023-06-04T14:44:00;27.60;81.10
40123;DHT22;25832;45.490;4.912;2023-06-04T14:46:26;27.70;83.80
40123;DHT22;25832;45.490;4.912;2023-06-04T14:48:51;27.70;81.80
40123;DHT22;25832;45.490;4.912;2023-06-04T14:51:17;27.70;78.80
40123;DHT22;25832;45.490;4.912;2023-06-04T14:53:43;27.80;80.30
40123;DHT22;25832;45.490;4.912;2023-06-04T14:56:08;27.90;80.60
40123;DHT22;25832;45.490;4.912;2023-06-04T14:58:34;28.00;83.50
40123;DHT22;25832;45.490;4.912;2023-06-04T15:01:00;27.90;82.50
40123;DHT22;25832;45.490;4.912;2023-06-04T15:03:29;28.00;80.80
40123;DHT22;25832;45.490;4.912;2023-06-04T15:05:55;27.90;80.60
40123;DHT22;25832;45.490;4.912;2023-06-04T15:08:21;27.80;82.00
40123;DHT22;25832;45.490;4.912;2023-06-04T15:10:46;27.90;81.90
40123;DHT22;25832;45.490;4.912;2023-06-04T15:13:12;27.90;80.60
40123;DHT22;25832;45.490;4.912;2023-06-04T15:15:38;28.00;80.80
40123;DHT22;25832;45.490;4.912;2023-06-04T15:18:03;27.90;79.70
40123;DHT22;25832;45.490;4.912;2023-06-04T15:20:32;27.70;79.10
40123;DHT22;25832;45.490;4.912;2023-06-04T15:22:57;27.60;78.90
40123;DHT22;25832;45.490;4.912;2023-06-04T15:25:23;27.60;80.80
40123;DHT22;25832;45.490;4.912;2023-06-04T15:27:49;27.50;81.30
40123;DHT22;25832;45.490;4.912;2023-06-04T15:30:14;27.60;83.50
40123;DHT22;25832;45.490;4.912;2023-06-04T15:32:42;27.70;80.40